Etusivu
METAR-TAF:

METAR-TAF

Lentoasemat :

Emmen, Sveitsi

Leveyspiiri: 47-05-32N, Pituuspiiri: 8-18-16E, korkeus merenpinnasta: 426 m

Tämänhetkinen sää

Tämä raportti tehtiin 21 tuntia ja 1 minuuttia sitten, kello 14.50 UTC
Tuuli 6 kn pohjoisesta/koillisesta, vaihdellen pohjoisen ja idän/koillisen välillä
Lämpötila 22°C
Kosteus 69%
Ilmanpaine 1015 hPa
Näkyvyys 10 km tai enemmän
Muutamia pilviä 3500 ft:n korkeudessa
Hajanaisia pilviä 5500 ft:n korkeudessa

METAR: LSME 171450Z 02006KT 350V060 9999 FEW035 SCT055 22/16 Q1015 RMK BLU+

Aika: 13:51 (11:51 UTC)


TAF: puuttuu

Säähavainnot ja -ennusteet yli 4000 lentoasemalta (METAR- ja TAF-raportit).

Käytössä olevat sääasemat on merkitty karttaan keltaisilla ja punaisilla pisteillä.

Aseta hiiri pisteen päälle nähdäksesi sääaseman nimen.

Klikkaa sitten nähdäksesi säähavainnot ja -ennusteet.

Kartan vaihtaminen: klikkaa mustalla rastilla varustettuja vihreitä pisteitä, niin voit zoomata sisään; viivalla varustettua vihreää pistettä, niin voit zoomata ulos tai vihreitä nuolia, niin pääset viereisille kartoille.


METAR-TAF: